sensor_id;sensor_type;location;lat;lon;timestamp;P1;durP1;ratioP1;P2;durP2;ratioP2
20844;SDS011;10583;49.084;8.646;2022-11-15T00:02:04;13.50;;;13.40;;
20844;SDS011;10583;49.084;8.646;2022-11-15T00:04:31;13.57;;;13.47;;
20844;SDS011;10583;49.084;8.646;2022-11-15T00:06:57;12.17;;;12.07;;
20844;SDS011;10583;49.084;8.646;2022-11-15T00:09:24;12.40;;;12.40;;
20844;SDS011;10583;49.084;8.646;2022-11-15T00:11:51;12.53;;;12.47;;
20844;SDS011;10583;49.084;8.646;2022-11-15T00:14:18;13.03;;;12.93;;
20844;SDS011;10583;49.084;8.646;2022-11-15T00:16:45;12.77;;;12.67;;
20844;SDS011;10583;49.084;8.646;2022-11-15T00:19:13;12.40;;;12.30;;
20844;SDS011;10583;49.084;8.646;2022-11-15T00:21:40;12.30;;;12.27;;
20844;SDS011;10583;49.084;8.646;2022-11-15T00:24:06;12.67;;;12.57;;
20844;SDS011;10583;49.084;8.646;2022-11-15T00:26:33;12.40;;;12.30;;
20844;SDS011;10583;49.084;8.646;2022-11-15T00:29:00;12.90;;;12.87;;
20844;SDS011;10583;49.084;8.646;2022-11-15T00:31:26;14.17;;;14.07;;
20844;SDS011;10583;49.084;8.646;2022-11-15T00:33:53;16.70;;;16.60;;
20844;SDS011;10583;49.084;8.646;2022-11-15T00:36:21;12.43;;;12.43;;
20844;SDS011;10583;49.084;8.646;2022-11-15T00:38:48;13.10;;;13.00;;
20844;SDS011;10583;49.084;8.646;2022-11-15T00:41:14;12.70;;;12.60;;
20844;SDS011;10583;49.084;8.646;2022-11-15T00:43:41;10.97;;;10.97;;
20844;SDS011;10583;49.084;8.646;2022-11-15T00:46:09;13.27;;;13.17;;
20844;SDS011;10583;49.084;8.646;2022-11-15T00:48:35;11.40;;;11.40;;
20844;SDS011;10583;49.084;8.646;2022-11-15T00:51:02;11.47;;;11.47;;
20844;SDS011;10583;49.084;8.646;2022-11-15T00:53:30;14.17;;;14.07;;
20844;SDS011;10583;49.084;8.646;2022-11-15T00:55:57;10.33;;;10.33;;
20844;SDS011;10583;49.084;8.646;2022-11-15T00:58:24;10.60;;;10.60;;
20844;SDS011;10583;49.084;8.646;2022-11-15T01:00:50;11.50;;;11.50;;
20844;SDS011;10583;49.084;8.646;2022-11-15T01:03:17;9.63;;;9.63;;
20844;SDS011;10583;49.084;8.646;2022-11-15T01:05:44;13.33;;;13.33;;
20844;SDS011;10583;49.084;8.646;2022-11-15T01:08:11;10.93;;;10.93;;
20844;SDS011;10583;49.084;8.646;2022-11-15T01:10:40;9.03;;;9.03;;
20844;SDS011;10583;49.084;8.646;2022-11-15T01:13:08;7.93;;;7.93;;
20844;SDS011;10583;49.084;8.646;2022-11-15T01:15:38;8.53;;;8.53;;
20844;SDS011;10583;49.084;8.646;2022-11-15T01:18:05;7.23;;;7.23;;
20844;SDS011;10583;49.084;8.646;2022-11-15T01:20:32;7.00;;;7.00;;
20844;SDS011;10583;49.084;8.646;2022-11-15T01:22:58;6.43;;;6.43;;
20844;SDS011;10583;49.084;8.646;2022-11-15T01:25:25;5.97;;;5.97;;
20844;SDS011;10583;49.084;8.646;2022-11-15T01:27:53;5.97;;;5.97;;
20844;SDS011;10583;49.084;8.646;2022-11-15T01:30:20;5.40;;;5.40;;
20844;SDS011;10583;49.084;8.646;2022-11-15T01:32:46;6.50;;;6.50;;
20844;SDS011;10583;49.084;8.646;2022-11-15T01:35:13;6.13;;;6.13;;
20844;SDS011;10583;49.084;8.646;2022-11-15T01:37:40;5.33;;;5.33;;
20844;SDS011;10583;49.084;8.646;2022-11-15T01:40:07;4.97;;;4.97;;
20844;SDS011;10583;49.084;8.646;2022-11-15T01:42:34;5.00;;;5.00;;
20844;SDS011;10583;49.084;8.646;2022-11-15T01:45:02;4.80;;;4.80;;
20844;SDS011;10583;49.084;8.646;2022-11-15T01:47:31;4.70;;;4.70;;
20844;SDS011;10583;49.084;8.646;2022-11-15T01:50:02;4.93;;;4.93;;
20844;SDS011;10583;49.084;8.646;2022-11-15T01:52:30;5.40;;;5.40;;
20844;SDS011;10583;49.084;8.646;2022-11-15T01:55:01;5.07;;;5.07;;
20844;SDS011;10583;49.084;8.646;2022-11-15T01:57:31;5.17;;;5.17;;
20844;SDS011;10583;49.084;8.646;2022-11-15T01:59:58;4.87;;;4.87;;
20844;SDS011;10583;49.084;8.646;2022-11-15T02:02:35;4.90;;;4.90;;
20844;SDS011;10583;49.084;8.646;2022-11-15T02:05:03;5.10;;;5.10;;
20844;SDS011;10583;49.084;8.646;2022-11-15T02:07:30;5.57;;;5.57;;
20844;SDS011;10583;49.084;8.646;2022-11-15T02:09:58;5.07;;;5.07;;
20844;SDS011;10583;49.084;8.646;2022-11-15T02:12:30;5.33;;;5.33;;
20844;SDS011;10583;49.084;8.646;2022-11-15T02:14:57;5.37;;;5.37;;
20844;SDS011;10583;49.084;8.646;2022-11-15T02:17:39;5.40;;;5.40;;
20844;SDS011;10583;49.084;8.646;2022-11-15T02:20:28;5.90;;;5.90;;
20844;SDS011;10583;49.084;8.646;2022-11-15T02:23:23;5.00;;;5.00;;
20844;SDS011;10583;49.084;8.646;2022-11-15T02:29:27;5.63;;;5.63;;
20844;SDS011;10583;49.084;8.646;2022-11-15T02:32:09;5.57;;;5.57;;
20844;SDS011;10583;49.084;8.646;2022-11-15T02:34:43;5.73;;;5.73;;
20844;SDS011;10583;49.084;8.646;2022-11-15T02:37:19;5.40;;;5.40;;
20844;SDS011;10583;49.084;8.646;2022-11-15T02:39:54;5.90;;;5.90;;
20844;SDS011;10583;49.084;8.646;2022-11-15T02:42:26;6.00;;;6.00;;
20844;SDS011;10583;49.084;8.646;2022-11-15T02:45:16;5.07;;;5.07;;
20844;SDS011;10583;49.084;8.646;2022-11-15T02:47:48;5.03;;;5.03;;
20844;SDS011;10583;49.084;8.646;2022-11-15T02:50:18;5.50;;;5.50;;
20844;SDS011;10583;49.084;8.646;2022-11-15T02:52:48;5.47;;;5.47;;
20844;SDS011;10583;49.084;8.646;2022-11-15T02:55:24;5.53;;;5.53;;
20844;SDS011;10583;49.084;8.646;2022-11-15T02:57:56;5.53;;;5.53;;
20844;SDS011;10583;49.084;8.646;2022-11-15T03:00:34;5.43;;;5.43;;
20844;SDS011;10583;49.084;8.646;2022-11-15T03:06:10;5.50;;;5.50;;
20844;SDS011;10583;49.084;8.646;2022-11-15T03:08:47;5.50;;;5.50;;
20844;SDS011;10583;49.084;8.646;2022-11-15T03:11:23;5.00;;;5.00;;
20844;SDS011;10583;49.084;8.646;2022-11-15T03:13:53;4.80;;;4.80;;
20844;SDS011;10583;49.084;8.646;2022-11-15T03:16:24;4.73;;;4.73;;
20844;SDS011;10583;49.084;8.646;2022-11-15T03:18:58;5.10;;;5.10;;
20844;SDS011;10583;49.084;8.646;2022-11-15T03:21:29;4.53;;;4.53;;
20844;SDS011;10583;49.084;8.646;2022-11-15T03:23:57;4.37;;;4.37;;
20844;SDS011;10583;49.084;8.646;2022-11-15T03:26:26;4.70;;;4.70;;
20844;SDS011;10583;49.084;8.646;2022-11-15T03:28:55;4.43;;;4.43;;
20844;SDS011;10583;49.084;8.646;2022-11-15T03:31:25;4.60;;;4.60;;
20844;SDS011;10583;49.084;8.646;2022-11-15T03:34:23;4.23;;;4.23;;
20844;SDS011;10583;49.084;8.646;2022-11-15T03:36:53;4.10;;;4.10;;
20844;SDS011;10583;49.084;8.646;2022-11-15T03:39:20;4.23;;;4.23;;
20844;SDS011;10583;49.084;8.646;2022-11-15T03:41:49;4.23;;;4.23;;
20844;SDS011;10583;49.084;8.646;2022-11-15T03:44:26;4.00;;;4.00;;
20844;SDS011;10583;49.084;8.646;2022-11-15T03:47:03;3.63;;;3.63;;
20844;SDS011;10583;49.084;8.646;2022-11-15T03:49:36;4.10;;;4.10;;
20844;SDS011;10583;49.084;8.646;2022-11-15T03:52:08;3.60;;;3.60;;
20844;SDS011;10583;49.084;8.646;2022-11-15T03:54:36;3.90;;;3.90;;
20844;SDS011;10583;49.084;8.646;2022-11-15T03:57:13;4.03;;;4.03;;
20844;SDS011;10583;49.084;8.646;2022-11-15T03:59:39;4.13;;;4.13;;
20844;SDS011;10583;49.084;8.646;2022-11-15T04:02:06;3.53;;;3.53;;
20844;SDS011;10583;49.084;8.646;2022-11-15T04:04:33;3.47;;;3.47;;
20844;SDS011;10583;49.084;8.646;2022-11-15T04:07:01;3.70;;;3.70;;
20844;SDS011;10583;49.084;8.646;2022-11-15T04:09:27;3.40;;;3.40;;
20844;SDS011;10583;49.084;8.646;2022-11-15T04:11:54;3.53;;;3.53;;
20844;SDS011;10583;49.084;8.646;2022-11-15T04:14:21;3.87;;;3.87;;
20844;SDS011;10583;49.084;8.646;2022-11-15T04:16:47;3.77;;;3.77;;
20844;SDS011;10583;49.084;8.646;2022-11-15T04:19:14;3.90;;;3.90;;
20844;SDS011;10583;49.084;8.646;2022-11-15T04:21:59;3.80;;;3.80;;
20844;SDS011;10583;49.084;8.646;2022-11-15T04:24:44;4.03;;;4.03;;
20844;SDS011;10583;49.084;8.646;2022-11-15T04:27:11;3.40;;;3.40;;
20844;SDS011;10583;49.084;8.646;2022-11-15T04:29:38;3.70;;;3.70;;
20844;SDS011;10583;49.084;8.646;2022-11-15T04:32:06;3.80;;;3.80;;
20844;SDS011;10583;49.084;8.646;2022-11-15T04:34:33;3.67;;;3.67;;
20844;SDS011;10583;49.084;8.646;2022-11-15T04:37:01;4.23;;;4.23;;
20844;SDS011;10583;49.084;8.646;2022-11-15T04:39:41;3.43;;;3.43;;
20844;SDS011;10583;49.084;8.646;2022-11-15T04:42:09;3.50;;;3.50;;
20844;SDS011;10583;49.084;8.646;2022-11-15T04:44:36;3.73;;;3.73;;
20844;SDS011;10583;49.084;8.646;2022-11-15T04:47:03;3.10;;;3.10;;
20844;SDS011;10583;49.084;8.646;2022-11-15T04:49:29;3.80;;;3.80;;
20844;SDS011;10583;49.084;8.646;2022-11-15T04:51:56;4.27;;;4.27;;
20844;SDS011;10583;49.084;8.646;2022-11-15T04:54:24;4.37;;;4.37;;
20844;SDS011;10583;49.084;8.646;2022-11-15T04:56:51;4.17;;;4.17;;
20844;SDS011;10583;49.084;8.646;2022-11-15T04:59:18;4.13;;;4.13;;
20844;SDS011;10583;49.084;8.646;2022-11-15T05:01:44;4.40;;;4.40;;
20844;SDS011;10583;49.084;8.646;2022-11-15T05:04:11;3.63;;;3.63;;
20844;SDS011;10583;49.084;8.646;2022-11-15T05:06:46;4.00;;;4.00;;
20844;SDS011;10583;49.084;8.646;2022-11-15T05:09:14;5.10;;;5.10;;
20844;SDS011;10583;49.084;8.646;2022-11-15T05:11:42;4.53;;;4.53;;
20844;SDS011;10583;49.084;8.646;2022-11-15T05:14:09;4.73;;;4.73;;
20844;SDS011;10583;49.084;8.646;2022-11-15T05:16:36;4.23;;;4.23;;
20844;SDS011;10583;49.084;8.646;2022-11-15T05:19:03;4.23;;;4.23;;
20844;SDS011;10583;49.084;8.646;2022-11-15T05:21:30;4.33;;;4.33;;
20844;SDS011;10583;49.084;8.646;2022-11-15T05:23:58;4.47;;;4.47;;
20844;SDS011;10583;49.084;8.646;2022-11-15T05:26:25;4.80;;;4.80;;
20844;SDS011;10583;49.084;8.646;2022-11-15T05:28:53;3.67;;;3.67;;
20844;SDS011;10583;49.084;8.646;2022-11-15T05:31:21;3.70;;;3.70;;
20844;SDS011;10583;49.084;8.646;2022-11-15T05:33:49;3.53;;;3.53;;
20844;SDS011;10583;49.084;8.646;2022-11-15T05:36:17;3.30;;;3.30;;
20844;SDS011;10583;49.084;8.646;2022-11-15T05:38:47;3.40;;;3.40;;
20844;SDS011;10583;49.084;8.646;2022-11-15T05:41:14;3.27;;;3.27;;
20844;SDS011;10583;49.084;8.646;2022-11-15T05:43:44;3.90;;;3.90;;
20844;SDS011;10583;49.084;8.646;2022-11-15T05:46:13;3.47;;;3.47;;
20844;SDS011;10583;49.084;8.646;2022-11-15T05:48:40;4.37;;;4.37;;
20844;SDS011;10583;49.084;8.646;2022-11-15T05:51:09;3.93;;;3.93;;
20844;SDS011;10583;49.084;8.646;2022-11-15T05:53:37;4.70;;;4.70;;
20844;SDS011;10583;49.084;8.646;2022-11-15T05:56:04;4.00;;;4.00;;
20844;SDS011;10583;49.084;8.646;2022-11-15T05:58:32;4.40;;;4.40;;
20844;SDS011;10583;49.084;8.646;2022-11-15T06:00:59;4.40;;;4.40;;
20844;SDS011;10583;49.084;8.646;2022-11-15T06:03:27;4.10;;;4.10;;
20844;SDS011;10583;49.084;8.646;2022-11-15T06:05:54;4.17;;;4.17;;
20844;SDS011;10583;49.084;8.646;2022-11-15T06:08:22;5.03;;;5.03;;
20844;SDS011;10583;49.084;8.646;2022-11-15T06:10:48;4.30;;;4.30;;
20844;SDS011;10583;49.084;8.646;2022-11-15T06:13:15;4.97;;;4.97;;
20844;SDS011;10583;49.084;8.646;2022-11-15T06:15:42;4.20;;;4.20;;
20844;SDS011;10583;49.084;8.646;2022-11-15T06:18:08;4.20;;;4.20;;
20844;SDS011;10583;49.084;8.646;2022-11-15T06:20:36;4.10;;;4.10;;
20844;SDS011;10583;49.084;8.646;2022-11-15T06:23:04;4.00;;;4.00;;
20844;SDS011;10583;49.084;8.646;2022-11-15T06:25:31;4.70;;;4.70;;
20844;SDS011;10583;49.084;8.646;2022-11-15T06:27:58;7.90;;;7.90;;
20844;SDS011;10583;49.084;8.646;2022-11-15T06:30:25;6.93;;;6.93;;
20844;SDS011;10583;49.084;8.646;2022-11-15T06:32:58;11.77;;;11.77;;
20844;SDS011;10583;49.084;8.646;2022-11-15T06:35:25;10.53;;;10.53;;
20844;SDS011;10583;49.084;8.646;2022-11-15T06:37:54;9.77;;;9.77;;
20844;SDS011;10583;49.084;8.646;2022-11-15T06:40:20;11.83;;;11.83;;
20844;SDS011;10583;49.084;8.646;2022-11-15T06:42:47;10.40;;;10.40;;
20844;SDS011;10583;49.084;8.646;2022-11-15T06:45:14;10.00;;;10.00;;
20844;SDS011;10583;49.084;8.646;2022-11-15T06:47:44;7.17;;;7.17;;
20844;SDS011;10583;49.084;8.646;2022-11-15T06:50:11;4.97;;;4.97;;
20844;SDS011;10583;49.084;8.646;2022-11-15T06:52:38;4.43;;;4.43;;
20844;SDS011;10583;49.084;8.646;2022-11-15T06:55:07;4.63;;;4.63;;
20844;SDS011;10583;49.084;8.646;2022-11-15T06:57:34;4.20;;;4.20;;
20844;SDS011;10583;49.084;8.646;2022-11-15T07:00:02;4.23;;;4.23;;
20844;SDS011;10583;49.084;8.646;2022-11-15T07:02:29;3.80;;;3.80;;
20844;SDS011;10583;49.084;8.646;2022-11-15T07:04:57;3.90;;;3.90;;
20844;SDS011;10583;49.084;8.646;2022-11-15T07:07:23;3.77;;;3.77;;
20844;SDS011;10583;49.084;8.646;2022-11-15T07:09:50;4.43;;;4.43;;
20844;SDS011;10583;49.084;8.646;2022-11-15T07:12:18;4.37;;;4.37;;
20844;SDS011;10583;49.084;8.646;2022-11-15T07:14:45;4.73;;;4.73;;
20844;SDS011;10583;49.084;8.646;2022-11-15T07:17:11;4.53;;;4.53;;
20844;SDS011;10583;49.084;8.646;2022-11-15T07:19:38;4.60;;;4.60;;
20844;SDS011;10583;49.084;8.646;2022-11-15T07:22:05;4.83;;;4.83;;
20844;SDS011;10583;49.084;8.646;2022-11-15T07:24:31;4.57;;;4.57;;
20844;SDS011;10583;49.084;8.646;2022-11-15T07:26:58;5.40;;;5.40;;
20844;SDS011;10583;49.084;8.646;2022-11-15T07:29:26;5.33;;;5.33;;
20844;SDS011;10583;49.084;8.646;2022-11-15T07:31:53;5.10;;;5.10;;
20844;SDS011;10583;49.084;8.646;2022-11-15T07:34:20;5.00;;;5.00;;
20844;SDS011;10583;49.084;8.646;2022-11-15T07:36:47;5.30;;;5.30;;
20844;SDS011;10583;49.084;8.646;2022-11-15T07:39:14;4.90;;;4.90;;
20844;SDS011;10583;49.084;8.646;2022-11-15T07:41:40;5.60;;;5.60;;
20844;SDS011;10583;49.084;8.646;2022-11-15T07:44:08;4.87;;;4.87;;
20844;SDS011;10583;49.084;8.646;2022-11-15T07:46:36;4.97;;;4.97;;
20844;SDS011;10583;49.084;8.646;2022-11-15T07:49:03;4.47;;;4.47;;
20844;SDS011;10583;49.084;8.646;2022-11-15T07:51:29;5.53;;;5.53;;
20844;SDS011;10583;49.084;8.646;2022-11-15T07:53:56;5.23;;;5.23;;
20844;SDS011;10583;49.084;8.646;2022-11-15T07:56:23;4.77;;;4.77;;
20844;SDS011;10583;49.084;8.646;2022-11-15T07:58:50;5.70;;;5.70;;
20844;SDS011;10583;49.084;8.646;2022-11-15T08:01:16;5.10;;;5.10;;
20844;SDS011;10583;49.084;8.646;2022-11-15T08:03:44;6.30;;;6.30;;
20844;SDS011;10583;49.084;8.646;2022-11-15T08:06:11;6.30;;;6.30;;
20844;SDS011;10583;49.084;8.646;2022-11-15T08:08:38;7.57;;;7.57;;
20844;SDS011;10583;49.084;8.646;2022-11-15T08:11:04;9.00;;;9.00;;
20844;SDS011;10583;49.084;8.646;2022-11-15T08:13:31;7.90;;;7.90;;
20844;SDS011;10583;49.084;8.646;2022-11-15T08:15:58;10.00;;;10.00;;
20844;SDS011;10583;49.084;8.646;2022-11-15T08:18:25;7.80;;;7.80;;
20844;SDS011;10583;49.084;8.646;2022-11-15T08:20:57;6.60;;;6.60;;
20844;SDS011;10583;49.084;8.646;2022-11-15T08:23:25;8.77;;;8.77;;
20844;SDS011;10583;49.084;8.646;2022-11-15T08:25:52;9.13;;;9.13;;
20844;SDS011;10583;49.084;8.646;2022-11-15T08:28:24;10.17;;;10.17;;
20844;SDS011;10583;49.084;8.646;2022-11-15T08:30:51;7.93;;;7.93;;
20844;SDS011;10583;49.084;8.646;2022-11-15T08:33:17;8.23;;;8.23;;
20844;SDS011;10583;49.084;8.646;2022-11-15T08:35:44;7.27;;;7.27;;
20844;SDS011;10583;49.084;8.646;2022-11-15T08:38:12;7.10;;;7.10;;
20844;SDS011;10583;49.084;8.646;2022-11-15T08:40:39;7.03;;;7.03;;
20844;SDS011;10583;49.084;8.646;2022-11-15T08:43:06;7.13;;;7.13;;
20844;SDS011;10583;49.084;8.646;2022-11-15T08:45:33;6.27;;;6.27;;
20844;SDS011;10583;49.084;8.646;2022-11-15T08:48:01;6.47;;;6.47;;
20844;SDS011;10583;49.084;8.646;2022-11-15T08:50:29;6.83;;;6.83;;
20844;SDS011;10583;49.084;8.646;2022-11-15T08:52:56;6.70;;;6.70;;
20844;SDS011;10583;49.084;8.646;2022-11-15T08:55:25;6.07;;;6.07;;
20844;SDS011;10583;49.084;8.646;2022-11-15T08:57:52;5.70;;;5.70;;
20844;SDS011;10583;49.084;8.646;2022-11-15T09:00:18;6.67;;;6.67;;
20844;SDS011;10583;49.084;8.646;2022-11-15T09:02:45;6.27;;;6.27;;
20844;SDS011;10583;49.084;8.646;2022-11-15T09:05:12;7.97;;;7.97;;
20844;SDS011;10583;49.084;8.646;2022-11-15T09:07:40;5.80;;;5.80;;
20844;SDS011;10583;49.084;8.646;2022-11-15T09:10:07;5.13;;;5.13;;
20844;SDS011;10583;49.084;8.646;2022-11-15T09:12:36;4.83;;;4.83;;
20844;SDS011;10583;49.084;8.646;2022-11-15T09:15:03;4.60;;;4.60;;
20844;SDS011;10583;49.084;8.646;2022-11-15T09:17:30;4.13;;;4.13;;
20844;SDS011;10583;49.084;8.646;2022-11-15T09:19:57;4.33;;;4.33;;
20844;SDS011;10583;49.084;8.646;2022-11-15T09:22:24;4.50;;;4.50;;
20844;SDS011;10583;49.084;8.646;2022-11-15T09:24:51;4.07;;;4.07;;
20844;SDS011;10583;49.084;8.646;2022-11-15T09:27:17;3.83;;;3.83;;
20844;SDS011;10583;49.084;8.646;2022-11-15T09:29:45;4.10;;;4.10;;
20844;SDS011;10583;49.084;8.646;2022-11-15T09:32:12;4.00;;;4.00;;
20844;SDS011;10583;49.084;8.646;2022-11-15T09:34:39;3.87;;;3.87;;
20844;SDS011;10583;49.084;8.646;2022-11-15T09:37:05;3.93;;;3.93;;
20844;SDS011;10583;49.084;8.646;2022-11-15T09:39:32;3.73;;;3.73;;
20844;SDS011;10583;49.084;8.646;2022-11-15T09:42:09;3.80;;;3.80;;
20844;SDS011;10583;49.084;8.646;2022-11-15T09:45:06;4.13;;;4.13;;
20844;SDS011;10583;49.084;8.646;2022-11-15T09:47:44;3.77;;;3.77;;
20844;SDS011;10583;49.084;8.646;2022-11-15T09:50:27;3.77;;;3.77;;
20844;SDS011;10583;49.084;8.646;2022-11-15T09:52:57;4.13;;;4.13;;
20844;SDS011;10583;49.084;8.646;2022-11-15T09:55:28;3.87;;;3.87;;
20844;SDS011;10583;49.084;8.646;2022-11-15T09:58:05;3.60;;;3.60;;
20844;SDS011;10583;49.084;8.646;2022-11-15T10:00:44;3.60;;;3.60;;
20844;SDS011;10583;49.084;8.646;2022-11-15T10:03:18;3.93;;;3.93;;
20844;SDS011;10583;49.084;8.646;2022-11-15T10:05:52;3.60;;;3.60;;
20844;SDS011;10583;49.084;8.646;2022-11-15T10:08:28;3.60;;;3.60;;
20844;SDS011;10583;49.084;8.646;2022-11-15T10:11:07;4.23;;;4.23;;
20844;SDS011;10583;49.084;8.646;2022-11-15T10:13:36;4.57;;;4.57;;
20844;SDS011;10583;49.084;8.646;2022-11-15T10:16:12;5.57;;;5.57;;
20844;SDS011;10583;49.084;8.646;2022-11-15T10:18:54;6.63;;;6.63;;
20844;SDS011;10583;49.084;8.646;2022-11-15T10:21:32;6.80;;;6.80;;
20844;SDS011;10583;49.084;8.646;2022-11-15T10:24:10;6.20;;;6.20;;
20844;SDS011;10583;49.084;8.646;2022-11-15T10:26:38;13.17;;;13.07;;
20844;SDS011;10583;49.084;8.646;2022-11-15T10:29:05;10.70;;;10.67;;
20844;SDS011;10583;49.084;8.646;2022-11-15T10:31:33;7.37;;;7.37;;
20844;SDS011;10583;49.084;8.646;2022-11-15T10:34:05;6.00;;;6.00;;
20844;SDS011;10583;49.084;8.646;2022-11-15T10:36:39;5.87;;;5.87;;
20844;SDS011;10583;49.084;8.646;2022-11-15T10:39:11;6.17;;;6.17;;
20844;SDS011;10583;49.084;8.646;2022-11-15T10:41:39;6.10;;;6.10;;
20844;SDS011;10583;49.084;8.646;2022-11-15T10:44:10;6.33;;;6.33;;
20844;SDS011;10583;49.084;8.646;2022-11-15T10:46:47;6.90;;;6.90;;
20844;SDS011;10583;49.084;8.646;2022-11-15T10:49:24;7.50;;;7.50;;
20844;SDS011;10583;49.084;8.646;2022-11-15T10:51:53;5.40;;;5.40;;
20844;SDS011;10583;49.084;8.646;2022-11-15T10:54:23;5.00;;;5.00;;
20844;SDS011;10583;49.084;8.646;2022-11-15T10:56:59;4.50;;;4.50;;
20844;SDS011;10583;49.084;8.646;2022-11-15T10:59:31;5.07;;;5.07;;
20844;SDS011;10583;49.084;8.646;2022-11-15T11:02:20;6.93;;;6.93;;
20844;SDS011;10583;49.084;8.646;2022-11-15T11:04:56;8.37;;;8.37;;
20844;SDS011;10583;49.084;8.646;2022-11-15T11:07:23;8.73;;;8.73;;
20844;SDS011;10583;49.084;8.646;2022-11-15T11:09:56;7.40;;;7.40;;
20844;SDS011;10583;49.084;8.646;2022-11-15T11:12:27;7.60;;;7.60;;
20844;SDS011;10583;49.084;8.646;2022-11-15T11:14:55;6.70;;;6.70;;
20844;SDS011;10583;49.084;8.646;2022-11-15T11:17:26;5.43;;;5.43;;
20844;SDS011;10583;49.084;8.646;2022-11-15T11:20:02;6.10;;;6.10;;
20844;SDS011;10583;49.084;8.646;2022-11-15T11:22:37;4.53;;;4.53;;
20844;SDS011;10583;49.084;8.646;2022-11-15T11:25:17;4.30;;;4.30;;
20844;SDS011;10583;49.084;8.646;2022-11-15T11:27:54;3.97;;;3.97;;
20844;SDS011;10583;49.084;8.646;2022-11-15T11:30:33;3.80;;;3.80;;
20844;SDS011;10583;49.084;8.646;2022-11-15T11:33:13;3.80;;;3.80;;
20844;SDS011;10583;49.084;8.646;2022-11-15T11:35:55;3.93;;;3.93;;
20844;SDS011;10583;49.084;8.646;2022-11-15T11:38:39;4.77;;;4.77;;
20844;SDS011;10583;49.084;8.646;2022-11-15T11:41:19;4.80;;;4.80;;
20844;SDS011;10583;49.084;8.646;2022-11-15T11:43:59;5.07;;;5.07;;
20844;SDS011;10583;49.084;8.646;2022-11-15T11:46:52;5.73;;;5.73;;
20844;SDS011;10583;49.084;8.646;2022-11-15T11:49:25;5.40;;;5.30;;
20844;SDS011;10583;49.084;8.646;2022-11-15T11:51:59;3.73;;;3.73;;
20844;SDS011;10583;49.084;8.646;2022-11-15T11:54:32;3.97;;;3.97;;
20844;SDS011;10583;49.084;8.646;2022-11-15T11:57:05;3.40;;;3.40;;
20844;SDS011;10583;49.084;8.646;2022-11-15T11:59:48;2.93;;;2.93;;
20844;SDS011;10583;49.084;8.646;2022-11-15T12:02:20;3.43;;;3.43;;
20844;SDS011;10583;49.084;8.646;2022-11-15T12:04:57;2.93;;;2.93;;
20844;SDS011;10583;49.084;8.646;2022-11-15T12:07:33;3.50;;;3.50;;
20844;SDS011;10583;49.084;8.646;2022-11-15T12:10:03;3.83;;;3.83;;
20844;SDS011;10583;49.084;8.646;2022-11-15T12:12:41;4.13;;;4.13;;
20844;SDS011;10583;49.084;8.646;2022-11-15T12:15:14;3.87;;;3.87;;
20844;SDS011;10583;49.084;8.646;2022-11-15T12:17:43;4.37;;;4.37;;
20844;SDS011;10583;49.084;8.646;2022-11-15T12:20:16;4.47;;;4.47;;
20844;SDS011;10583;49.084;8.646;2022-11-15T12:22:46;4.90;;;4.90;;
20844;SDS011;10583;49.084;8.646;2022-11-15T12:25:18;5.23;;;5.23;;
20844;SDS011;10583;49.084;8.646;2022-11-15T12:27:49;5.10;;;5.10;;
20844;SDS011;10583;49.084;8.646;2022-11-15T12:30:20;5.30;;;5.30;;
20844;SDS011;10583;49.084;8.646;2022-11-15T12:32:52;5.53;;;5.53;;
20844;SDS011;10583;49.084;8.646;2022-11-15T12:35:25;5.47;;;5.47;;
20844;SDS011;10583;49.084;8.646;2022-11-15T12:37:55;9.40;;;9.40;;
20844;SDS011;10583;49.084;8.646;2022-11-15T12:40:29;5.93;;;5.93;;
20844;SDS011;10583;49.084;8.646;2022-11-15T12:43:07;4.73;;;4.73;;
20844;SDS011;10583;49.084;8.646;2022-11-15T12:45:55;4.53;;;4.53;;
20844;SDS011;10583;49.084;8.646;2022-11-15T12:57:48;5.67;;;5.67;;
20844;SDS011;10583;49.084;8.646;2022-11-15T13:06:03;5.00;;;5.00;;
20844;SDS011;10583;49.084;8.646;2022-11-15T13:08:36;5.40;;;5.40;;
20844;SDS011;10583;49.084;8.646;2022-11-15T13:17:17;4.87;;;4.87;;
20844;SDS011;10583;49.084;8.646;2022-11-15T13:19:57;4.80;;;4.80;;
20844;SDS011;10583;49.084;8.646;2022-11-15T13:22:26;4.60;;;4.60;;
20844;SDS011;10583;49.084;8.646;2022-11-15T13:25:18;4.50;;;4.50;;
20844;SDS011;10583;49.084;8.646;2022-11-15T13:27:55;4.33;;;4.33;;
20844;SDS011;10583;49.084;8.646;2022-11-15T13:30:23;6.27;;;6.27;;
20844;SDS011;10583;49.084;8.646;2022-11-15T13:32:50;5.57;;;5.57;;
20844;SDS011;10583;49.084;8.646;2022-11-15T13:35:20;4.37;;;4.37;;
20844;SDS011;10583;49.084;8.646;2022-11-15T13:37:48;4.10;;;4.10;;
20844;SDS011;10583;49.084;8.646;2022-11-15T13:40:18;4.17;;;4.17;;
20844;SDS011;10583;49.084;8.646;2022-11-15T13:42:49;4.03;;;4.03;;
20844;SDS011;10583;49.084;8.646;2022-11-15T13:45:18;4.20;;;4.20;;
20844;SDS011;10583;49.084;8.646;2022-11-15T13:47:50;3.80;;;3.80;;
20844;SDS011;10583;49.084;8.646;2022-11-15T13:50:18;3.90;;;3.90;;
20844;SDS011;10583;49.084;8.646;2022-11-15T13:52:47;2.70;;;2.70;;
20844;SDS011;10583;49.084;8.646;2022-11-15T13:55:15;2.73;;;2.73;;
20844;SDS011;10583;49.084;8.646;2022-11-15T13:57:45;3.00;;;3.00;;
20844;SDS011;10583;49.084;8.646;2022-11-15T14:00:33;2.90;;;2.90;;
20844;SDS011;10583;49.084;8.646;2022-11-15T14:03:06;2.90;;;2.90;;
20844;SDS011;10583;49.084;8.646;2022-11-15T14:05:39;2.50;;;2.50;;
20844;SDS011;10583;49.084;8.646;2022-11-15T14:08:12;2.90;;;2.90;;
20844;SDS011;10583;49.084;8.646;2022-11-15T14:10:48;2.90;;;2.90;;
20844;SDS011;10583;49.084;8.646;2022-11-15T14:13:32;2.37;;;2.37;;
20844;SDS011;10583;49.084;8.646;2022-11-15T14:16:13;2.50;;;2.50;;
20844;SDS011;10583;49.084;8.646;2022-11-15T14:18:43;2.97;;;2.97;;
20844;SDS011;10583;49.084;8.646;2022-11-15T14:21:12;2.87;;;2.87;;
20844;SDS011;10583;49.084;8.646;2022-11-15T14:23:39;2.60;;;2.60;;
20844;SDS011;10583;49.084;8.646;2022-11-15T14:26:10;2.80;;;2.80;;
20844;SDS011;10583;49.084;8.646;2022-11-15T14:28:52;2.90;;;2.90;;
20844;SDS011;10583;49.084;8.646;2022-11-15T14:31:20;2.70;;;2.70;;
20844;SDS011;10583;49.084;8.646;2022-11-15T14:33:47;2.80;;;2.80;;
20844;SDS011;10583;49.084;8.646;2022-11-15T14:36:15;2.97;;;2.97;;
20844;SDS011;10583;49.084;8.646;2022-11-15T14:38:44;2.90;;;2.90;;
20844;SDS011;10583;49.084;8.646;2022-11-15T14:41:17;2.83;;;2.83;;
20844;SDS011;10583;49.084;8.646;2022-11-15T14:43:44;2.70;;;2.70;;
20844;SDS011;10583;49.084;8.646;2022-11-15T14:46:11;2.73;;;2.73;;
20844;SDS011;10583;49.084;8.646;2022-11-15T14:48:39;2.93;;;2.93;;
20844;SDS011;10583;49.084;8.646;2022-11-15T14:51:09;2.37;;;2.37;;
20844;SDS011;10583;49.084;8.646;2022-11-15T14:53:38;2.90;;;2.90;;
20844;SDS011;10583;49.084;8.646;2022-11-15T14:56:05;2.50;;;2.50;;
20844;SDS011;10583;49.084;8.646;2022-11-15T14:58:31;2.90;;;2.90;;
20844;SDS011;10583;49.084;8.646;2022-11-15T15:00:58;2.40;;;2.40;;
20844;SDS011;10583;49.084;8.646;2022-11-15T15:03:25;2.70;;;2.70;;
20844;SDS011;10583;49.084;8.646;2022-11-15T15:05:53;3.03;;;3.03;;
20844;SDS011;10583;49.084;8.646;2022-11-15T15:08:21;2.70;;;2.70;;
20844;SDS011;10583;49.084;8.646;2022-11-15T15:10:48;3.00;;;3.00;;
20844;SDS011;10583;49.084;8.646;2022-11-15T15:13:16;2.60;;;2.60;;
20844;SDS011;10583;49.084;8.646;2022-11-15T15:15:45;2.77;;;2.77;;
20844;SDS011;10583;49.084;8.646;2022-11-15T15:18:12;2.70;;;2.70;;
20844;SDS011;10583;49.084;8.646;2022-11-15T15:20:40;2.60;;;2.60;;
20844;SDS011;10583;49.084;8.646;2022-11-15T15:23:13;3.17;;;3.17;;
20844;SDS011;10583;49.084;8.646;2022-11-15T15:25:41;2.73;;;2.73;;
20844;SDS011;10583;49.084;8.646;2022-11-15T15:28:10;3.20;;;3.20;;
20844;SDS011;10583;49.084;8.646;2022-11-15T15:30:37;3.10;;;3.10;;
20844;SDS011;10583;49.084;8.646;2022-11-15T15:33:04;2.83;;;2.83;;